Atlanta, NE

11:15 PM CDT on August 01, 2014 (GMT -0500)
Brewster (KHDE) Elev 2310 ft | 40.45 °N, 99.34 °W | Change Station

Current weather conditions updated 20 minutes ago

Clear
Clear
64 °F
Feels Like 64 °F
N
7
Wind Variable Wind from ESE

Tomorrow is forecast to be Warmer than today.

Today
High -- | Low -- °F
--% Chance of Precip.
Yesterday
High -- | Low -- °F
Precip. -- in
6:34 AM 8:52 PM
Waxing Crescent, 32% visible
Pressure 30.13 in
Visibility 7.0 miles
Clouds Clear
Dew Point 59 °F
Humidity 83%
Rainfall 0.00 in
Snow Depth Not available.
UV 0 out of 12
Pollen 7.60 out of 12
Air Quality Not available.
Flu Activity Not available.
METAR KHDE 020355Z AUTO 12006KT 7SM CLR 18/15 A3013 RMK AO2 T01770148

More Conditions Fewer Conditions

Pressure 30.13 in
Visibility 7.0 miles
Clouds Clear
Dew Point 59 °F
Humidity 83%
Rainfall 0.00 in
Snow Depth Not available.
UV 0 out of 12
Pollen 7.60 out of 12
Air Quality Not available.
Flu Activity Not available.
METAR KHDE 020355Z AUTO 12006KT 7SM CLR 18/15 A3013 RMK AO2 T01770148

More Conditions Fewer Conditions

10-Day Weather Forecast

Almanac

Astronomy

Aug. 01, 2014 Rise Set
Actual Time 6:34 AM CDT 8:52 PM CDT
Civil Twilight 6:04 AM CDT 9:22 PM CDT
Nautical Twilight 5:26 AM CDT 10:00 PM CDT
Astronomical Twilight 4:44 AM CDT 10:41 PM CDT
Moon 12:01 PM CDT (8/1) 11:36 PM CDT (8/1)
Length of Visible Light 15h 18m
Length of Day
14h 17m
Tomorrow will be 2m 2s shorter.
Waxing Crescent, 32% of the Moon is Illuminated
Aug 2
Waxing Crescent
Aug 3
First Quarter
Aug 10
Full
Aug 17
Last Quarter
Aug 25
New

Today's Extremes

State Highs State Lows

Community

WunderPhotos

Upload Photos

1,739,825 photos uploaded!

Nearby

Snow Depth

Station Depth Elevation
No new snow has been reported.

Earthquake Activity

City Distance Mag. Time & Date
No recent earthquake activity has been reported nearby.
Minimum magnitude displayed is 2.5.

Coastal Water Temperatures

Place Temperature
No Stations Reporting

Nearby Weather Stations

Station Location Temp. Heat Index Dew Point Humidity Wind Precip. Elev Updated Type
SW Kearney, Kearney, NE 70.4 °F 74 °F 60 °F 71% ESE  at  2.0 mph 0.00 in / hr 2159 ft 11:15 PM CDT Rapid Fire
Regency, Kearney, NE 66.8 °F - 59 °F 77% SE  at  1.7 mph 0.00 in / hr 2224 ft 11:15 PM CDT Rapid Fire

Show More Stations Show Fewer Stations